createdAt,value
2019-02-18T00:04:34.649Z,1.14
2019-02-18T00:14:37.251Z,1.13
2019-02-18T00:24:38.157Z,0.78
2019-02-18T00:34:39.946Z,0.79
2019-02-18T00:44:40.729Z,0.63
2019-02-18T00:54:41.654Z,0.79
2019-02-18T01:04:42.542Z,0.75
2019-02-18T01:14:43.449Z,0.82
2019-02-18T01:24:45.375Z,0.83
2019-02-18T01:34:46.325Z,0.71
2019-02-18T01:44:47.752Z,0.54
2019-02-18T01:54:51.854Z,-0.10
2019-02-18T02:04:54.446Z,0.24
2019-02-18T02:14:57.359Z,0.19
2019-02-18T02:24:58.305Z,0.25
2019-02-18T02:34:59.405Z,0.30
2019-02-18T02:45:07.933Z,0.34
2019-02-18T02:55:08.917Z,0.29
2019-02-18T03:05:10.815Z,0.14
2019-02-18T03:15:20.952Z,0.15
2019-02-18T03:25:29.240Z,0.23
2019-02-18T03:35:29.846Z,-0.26
2019-02-18T03:45:30.748Z,-0.18
2019-02-18T03:55:33.311Z,-0.15
2019-02-18T04:05:34.345Z,-0.57
2019-02-18T04:15:35.361Z,-0.36
2019-02-18T04:35:54.381Z,-0.35
2019-02-18T04:45:56.299Z,-0.42
2019-02-18T05:06:13.166Z,-0.71
2019-02-18T05:16:13.866Z,-0.72
2019-02-18T05:26:14.793Z,-0.67
2019-02-18T05:36:15.666Z,-0.84
2019-02-18T05:46:16.326Z,-1.09
2019-02-18T05:56:17.033Z,-0.86
2019-02-18T06:06:17.672Z,-0.79
2019-02-18T06:16:18.624Z,-0.97
2019-02-18T06:26:19.490Z,-0.96
2019-02-18T06:36:20.154Z,-1.60
2019-02-18T06:46:21.016Z,-1.26
2019-02-18T06:56:21.732Z,-1.18
2019-02-18T07:06:22.364Z,-1.10
2019-02-18T07:16:23.073Z,-0.39
2019-02-18T07:26:24.012Z,1.01
2019-02-18T07:36:24.935Z,-1.15
2019-02-18T07:46:25.711Z,0.69
2019-02-18T07:56:26.465Z,1.46
2019-02-18T08:06:27.350Z,2.15
2019-02-18T08:16:27.988Z,1.46
2019-02-18T08:36:49.025Z,1.44
2019-02-18T08:46:55.654Z,1.04
2019-02-18T08:56:56.472Z,2.81
2019-02-18T09:06:57.257Z,3.73
2019-02-18T09:16:59.088Z,3.83
2019-02-18T09:27:05.483Z,3.27
2019-02-18T09:37:06.375Z,3.92
2019-02-18T09:47:14.656Z,4.54
2019-02-18T09:57:21.580Z,5.27
2019-02-18T10:07:20.371Z,6.82
2019-02-18T10:17:22.970Z,5.99
2019-02-18T10:27:25.056Z,5.33
2019-02-18T10:37:30.124Z,5.05
2019-02-18T10:47:30.959Z,6.47
2019-02-18T10:57:34.208Z,6.89
2019-02-18T11:07:35.179Z,7.85
2019-02-18T11:17:39.189Z,7.65
2019-02-18T11:27:40.140Z,7.49
2019-02-18T11:38:12.741Z,8.21
2019-02-18T11:47:45.160Z,8.46
2019-02-18T11:57:46.133Z,9.07
2019-02-18T12:07:47.926Z,10.68
2019-02-18T12:17:49.854Z,10.67
2019-02-18T12:27:55.652Z,11.06
2019-02-18T12:37:58.739Z,10.97
2019-02-18T12:47:59.944Z,11.99
2019-02-18T12:58:08.316Z,14.06
2019-02-18T13:08:09.619Z,14.33
2019-02-18T13:18:12.830Z,14.96
2019-02-18T13:28:14.593Z,14.86
2019-02-18T14:09:09.992Z,16.02
2019-02-18T14:19:10.924Z,16.92
2019-02-18T14:29:11.580Z,16.85
2019-02-18T14:39:12.344Z,15.91
2019-02-18T14:49:13.237Z,16.66
2019-02-18T14:59:14.140Z,15.00
2019-02-18T15:09:15.056Z,14.37
2019-02-18T15:19:15.958Z,14.30
2019-02-18T15:29:16.699Z,14.08
2019-02-18T15:39:17.620Z,13.86
2019-02-18T15:49:18.376Z,13.69
2019-02-18T15:59:19.079Z,14.39
2019-02-18T16:09:20.180Z,13.26
2019-02-18T16:19:20.835Z,12.88
2019-02-18T16:50:07.026Z,10.66
2019-02-18T17:00:14.946Z,10.24
2019-02-18T17:10:16.561Z,10.07
2019-02-18T17:20:17.604Z,9.18
2019-02-18T17:30:18.316Z,8.72
2019-02-18T17:40:18.947Z,8.26
2019-02-18T17:50:19.624Z,8.24
2019-02-18T18:00:23.580Z,8.36
2019-02-18T18:10:24.213Z,7.73
2019-02-18T18:20:25.132Z,7.46
2019-02-18T18:30:26.526Z,7.43
2019-02-18T18:40:27.174Z,8.03
2019-02-18T18:50:27.914Z,8.22
2019-02-18T19:00:29.759Z,8.66
2019-02-18T19:10:30.808Z,8.74
2019-02-18T19:20:31.582Z,8.82
2019-02-18T19:30:32.648Z,8.43
2019-02-18T19:40:33.608Z,8.40
2019-02-18T19:50:34.605Z,8.88
2019-02-18T20:00:35.572Z,9.20
2019-02-18T20:10:36.283Z,9.34
2019-02-18T20:20:37.235Z,7.72
2019-02-18T20:30:38.135Z,7.10
2019-02-18T20:40:39.232Z,6.13
2019-02-18T20:50:40.438Z,5.47
2019-02-18T21:00:41.412Z,5.47
2019-02-18T21:10:42.043Z,5.52
2019-02-18T21:20:42.969Z,5.97
2019-02-18T21:30:43.972Z,6.31
2019-02-18T21:40:44.595Z,4.88
2019-02-18T21:50:46.542Z,4.61
2019-02-18T22:00:47.244Z,4.52
2019-02-18T22:10:48.425Z,4.23
2019-02-18T22:20:49.503Z,3.83
2019-02-18T22:30:53.379Z,3.30
2019-02-18T22:40:54.191Z,3.39
2019-02-18T22:50:58.016Z,3.72
2019-02-18T23:00:59.054Z,3.28
2019-02-18T23:10:59.880Z,3.05
2019-02-18T23:21:00.603Z,2.79
2019-02-18T23:31:01.338Z,2.72
2019-02-18T23:41:02.581Z,2.30
2019-02-18T23:51:07.893Z,2.12
